sensor_id;sensor_type;location;lat;lon;timestamp;P1;durP1;ratioP1;P2;durP2;ratioP2
49730;SDS011;35622;52.008;5.426;2022-10-16T00:01:22;12.35;;;3.53;;
49730;SDS011;35622;52.008;5.426;2022-10-16T00:03:50;9.75;;;3.60;;
49730;SDS011;35622;52.008;5.426;2022-10-16T00:06:17;11.93;;;3.38;;
49730;SDS011;35622;52.008;5.426;2022-10-16T00:08:44;15.02;;;4.18;;
49730;SDS011;35622;52.008;5.426;2022-10-16T00:11:14;10.43;;;3.53;;
49730;SDS011;35622;52.008;5.426;2022-10-16T00:13:48;17.42;;;4.20;;
49730;SDS011;35622;52.008;5.426;2022-10-16T00:16:15;14.88;;;3.47;;
49730;SDS011;35622;52.008;5.426;2022-10-16T00:18:41;12.27;;;3.55;;
49730;SDS011;35622;52.008;5.426;2022-10-16T00:21:12;17.08;;;4.28;;
49730;SDS011;35622;52.008;5.426;2022-10-16T00:23:39;11.88;;;3.47;;
49730;SDS011;35622;52.008;5.426;2022-10-16T00:26:07;10.25;;;3.45;;
49730;SDS011;35622;52.008;5.426;2022-10-16T00:28:38;14.23;;;3.47;;
49730;SDS011;35622;52.008;5.426;2022-10-16T00:31:04;18.38;;;4.00;;
49730;SDS011;35622;52.008;5.426;2022-10-16T00:33:31;15.27;;;4.20;;
49730;SDS011;35622;52.008;5.426;2022-10-16T00:35:58;15.10;;;4.28;;
49730;SDS011;35622;52.008;5.426;2022-10-16T00:38:24;9.43;;;4.35;;
49730;SDS011;35622;52.008;5.426;2022-10-16T00:40:49;17.40;;;3.67;;
49730;SDS011;35622;52.008;5.426;2022-10-16T00:51:49;18.83;;;4.38;;
49730;SDS011;35622;52.008;5.426;2022-10-16T00:54:17;18.67;;;4.82;;
49730;SDS011;35622;52.008;5.426;2022-10-16T00:56:47;21.10;;;4.85;;
49730;SDS011;35622;52.008;5.426;2022-10-16T00:59:37;19.02;;;4.55;;
49730;SDS011;35622;52.008;5.426;2022-10-16T01:02:05;12.35;;;4.57;;
49730;SDS011;35622;52.008;5.426;2022-10-16T01:04:34;16.23;;;4.30;;
49730;SDS011;35622;52.008;5.426;2022-10-16T01:09:57;15.13;;;4.30;;
49730;SDS011;35622;52.008;5.426;2022-10-16T01:15:39;14.88;;;4.63;;
49730;SDS011;35622;52.008;5.426;2022-10-16T01:20:45;14.38;;;4.40;;
49730;SDS011;35622;52.008;5.426;2022-10-16T01:28:39;14.30;;;4.95;;
49730;SDS011;35622;52.008;5.426;2022-10-16T01:31:12;15.55;;;4.82;;
49730;SDS011;35622;52.008;5.426;2022-10-16T01:33:42;16.83;;;4.63;;
49730;SDS011;35622;52.008;5.426;2022-10-16T01:36:13;10.30;;;4.70;;
49730;SDS011;35622;52.008;5.426;2022-10-16T01:38:42;14.82;;;5.00;;
49730;SDS011;35622;52.008;5.426;2022-10-16T01:41:14;12.23;;;4.22;;
49730;SDS011;35622;52.008;5.426;2022-10-16T01:43:48;18.88;;;5.28;;
49730;SDS011;35622;52.008;5.426;2022-10-16T01:46:24;13.23;;;4.45;;
49730;SDS011;35622;52.008;5.426;2022-10-16T01:48:51;10.90;;;4.43;;
49730;SDS011;35622;52.008;5.426;2022-10-16T01:51:18;7.78;;;4.13;;
49730;SDS011;35622;52.008;5.426;2022-10-16T01:53:47;8.25;;;4.18;;
49730;SDS011;35622;52.008;5.426;2022-10-16T01:56:17;10.60;;;5.22;;
49730;SDS011;35622;52.008;5.426;2022-10-16T01:58:54;12.00;;;4.15;;
49730;SDS011;35622;52.008;5.426;2022-10-16T02:01:23;10.35;;;4.80;;
49730;SDS011;35622;52.008;5.426;2022-10-16T02:03:53;11.57;;;4.55;;
49730;SDS011;35622;52.008;5.426;2022-10-16T02:06:21;16.25;;;4.88;;
49730;SDS011;35622;52.008;5.426;2022-10-16T02:08:48;10.63;;;4.53;;
49730;SDS011;35622;52.008;5.426;2022-10-16T02:11:13;16.58;;;4.72;;
49730;SDS011;35622;52.008;5.426;2022-10-16T02:13:44;13.25;;;4.50;;
49730;SDS011;35622;52.008;5.426;2022-10-16T02:16:12;15.82;;;4.93;;
49730;SDS011;35622;52.008;5.426;2022-10-16T02:18:39;16.25;;;4.95;;
49730;SDS011;35622;52.008;5.426;2022-10-16T02:21:11;10.55;;;4.93;;
49730;SDS011;35622;52.008;5.426;2022-10-16T02:26:51;19.98;;;5.05;;
49730;SDS011;35622;52.008;5.426;2022-10-16T02:29:23;13.15;;;5.47;;
49730;SDS011;35622;52.008;5.426;2022-10-16T02:31:53;18.08;;;5.97;;
49730;SDS011;35622;52.008;5.426;2022-10-16T02:34:23;12.45;;;5.40;;
49730;SDS011;35622;52.008;5.426;2022-10-16T02:36:50;10.98;;;5.35;;
49730;SDS011;35622;52.008;5.426;2022-10-16T02:39:17;19.17;;;5.45;;
49730;SDS011;35622;52.008;5.426;2022-10-16T02:41:44;9.68;;;4.63;;
49730;SDS011;35622;52.008;5.426;2022-10-16T02:44:10;8.00;;;5.15;;
49730;SDS011;35622;52.008;5.426;2022-10-16T02:46:36;9.90;;;4.50;;
49730;SDS011;35622;52.008;5.426;2022-10-16T02:49:01;13.27;;;5.18;;
49730;SDS011;35622;52.008;5.426;2022-10-16T02:51:27;12.10;;;4.60;;
49730;SDS011;35622;52.008;5.426;2022-10-16T02:53:52;9.52;;;4.45;;
49730;SDS011;35622;52.008;5.426;2022-10-16T02:56:18;7.75;;;4.32;;
49730;SDS011;35622;52.008;5.426;2022-10-16T02:58:44;15.55;;;5.22;;
49730;SDS011;35622;52.008;5.426;2022-10-16T03:01:09;11.00;;;5.05;;
49730;SDS011;35622;52.008;5.426;2022-10-16T03:03:37;11.77;;;4.75;;
49730;SDS011;35622;52.008;5.426;2022-10-16T03:06:02;9.35;;;4.30;;
49730;SDS011;35622;52.008;5.426;2022-10-16T03:08:28;9.75;;;4.30;;
49730;SDS011;35622;52.008;5.426;2022-10-16T03:10:54;16.70;;;5.65;;
49730;SDS011;35622;52.008;5.426;2022-10-16T03:13:20;17.90;;;4.70;;
49730;SDS011;35622;52.008;5.426;2022-10-16T03:15:46;11.70;;;4.47;;
49730;SDS011;35622;52.008;5.426;2022-10-16T03:18:11;14.25;;;4.70;;
49730;SDS011;35622;52.008;5.426;2022-10-16T03:20:37;9.00;;;4.65;;
49730;SDS011;35622;52.008;5.426;2022-10-16T03:23:03;11.93;;;4.95;;
49730;SDS011;35622;52.008;5.426;2022-10-16T03:25:29;18.95;;;4.35;;
49730;SDS011;35622;52.008;5.426;2022-10-16T03:27:54;11.80;;;4.72;;
49730;SDS011;35622;52.008;5.426;2022-10-16T03:30:20;9.05;;;3.95;;
49730;SDS011;35622;52.008;5.426;2022-10-16T03:32:45;13.43;;;4.65;;
49730;SDS011;35622;52.008;5.426;2022-10-16T03:35:11;11.73;;;4.30;;
49730;SDS011;35622;52.008;5.426;2022-10-16T03:37:37;9.85;;;4.15;;
49730;SDS011;35622;52.008;5.426;2022-10-16T03:40:03;9.73;;;3.70;;
49730;SDS011;35622;52.008;5.426;2022-10-16T03:42:29;12.45;;;4.63;;
49730;SDS011;35622;52.008;5.426;2022-10-16T03:44:55;13.60;;;4.75;;
49730;SDS011;35622;52.008;5.426;2022-10-16T03:47:20;13.25;;;4.53;;
49730;SDS011;35622;52.008;5.426;2022-10-16T03:49:48;12.75;;;4.80;;
49730;SDS011;35622;52.008;5.426;2022-10-16T03:52:14;12.07;;;4.70;;
49730;SDS011;35622;52.008;5.426;2022-10-16T03:54:40;11.95;;;3.90;;
49730;SDS011;35622;52.008;5.426;2022-10-16T03:57:05;12.07;;;4.03;;
49730;SDS011;35622;52.008;5.426;2022-10-16T03:59:31;9.73;;;3.60;;
49730;SDS011;35622;52.008;5.426;2022-10-16T04:01:56;10.63;;;4.13;;
49730;SDS011;35622;52.008;5.426;2022-10-16T04:04:22;8.38;;;3.78;;
49730;SDS011;35622;52.008;5.426;2022-10-16T04:06:47;10.70;;;4.13;;
49730;SDS011;35622;52.008;5.426;2022-10-16T04:09:13;8.57;;;3.83;;
49730;SDS011;35622;52.008;5.426;2022-10-16T04:11:38;10.35;;;4.03;;
49730;SDS011;35622;52.008;5.426;2022-10-16T04:14:04;13.40;;;4.00;;
49730;SDS011;35622;52.008;5.426;2022-10-16T04:16:30;9.05;;;3.80;;
49730;SDS011;35622;52.008;5.426;2022-10-16T04:18:55;10.70;;;3.40;;
49730;SDS011;35622;52.008;5.426;2022-10-16T04:21:21;7.88;;;3.70;;
49730;SDS011;35622;52.008;5.426;2022-10-16T04:23:47;12.60;;;4.10;;
49730;SDS011;35622;52.008;5.426;2022-10-16T04:26:12;10.30;;;3.42;;
49730;SDS011;35622;52.008;5.426;2022-10-16T04:28:38;9.43;;;3.88;;
49730;SDS011;35622;52.008;5.426;2022-10-16T04:31:04;9.30;;;3.78;;
49730;SDS011;35622;52.008;5.426;2022-10-16T04:33:30;8.77;;;3.67;;
49730;SDS011;35622;52.008;5.426;2022-10-16T04:35:56;13.43;;;3.88;;
49730;SDS011;35622;52.008;5.426;2022-10-16T04:38:25;12.07;;;3.88;;
49730;SDS011;35622;52.008;5.426;2022-10-16T04:40:51;12.07;;;3.83;;
49730;SDS011;35622;52.008;5.426;2022-10-16T04:43:17;8.48;;;3.30;;
49730;SDS011;35622;52.008;5.426;2022-10-16T04:45:43;9.18;;;4.20;;
49730;SDS011;35622;52.008;5.426;2022-10-16T04:48:08;11.55;;;3.47;;
49730;SDS011;35622;52.008;5.426;2022-10-16T04:50:34;9.00;;;3.63;;
49730;SDS011;35622;52.008;5.426;2022-10-16T04:52:59;8.07;;;3.45;;
49730;SDS011;35622;52.008;5.426;2022-10-16T04:55:25;11.35;;;3.58;;
49730;SDS011;35622;52.008;5.426;2022-10-16T04:57:50;8.68;;;3.78;;
49730;SDS011;35622;52.008;5.426;2022-10-16T05:00:16;9.10;;;3.67;;
49730;SDS011;35622;52.008;5.426;2022-10-16T05:02:42;10.27;;;3.97;;
49730;SDS011;35622;52.008;5.426;2022-10-16T05:05:07;10.45;;;3.65;;
49730;SDS011;35622;52.008;5.426;2022-10-16T05:07:33;8.65;;;3.45;;
49730;SDS011;35622;52.008;5.426;2022-10-16T05:09:59;11.57;;;3.83;;
49730;SDS011;35622;52.008;5.426;2022-10-16T05:12:24;7.85;;;3.50;;
49730;SDS011;35622;52.008;5.426;2022-10-16T05:14:50;7.50;;;3.63;;
49730;SDS011;35622;52.008;5.426;2022-10-16T05:17:16;9.82;;;4.00;;
49730;SDS011;35622;52.008;5.426;2022-10-16T05:19:41;9.20;;;4.00;;
49730;SDS011;35622;52.008;5.426;2022-10-16T05:22:07;10.73;;;5.43;;
49730;SDS011;35622;52.008;5.426;2022-10-16T05:24:32;12.60;;;5.70;;
49730;SDS011;35622;52.008;5.426;2022-10-16T05:26:58;16.55;;;7.80;;
49730;SDS011;35622;52.008;5.426;2022-10-16T05:29:23;16.67;;;7.43;;
49730;SDS011;35622;52.008;5.426;2022-10-16T05:31:50;16.52;;;8.60;;
49730;SDS011;35622;52.008;5.426;2022-10-16T05:34:16;19.38;;;9.40;;
49730;SDS011;35622;52.008;5.426;2022-10-16T05:36:42;22.25;;;9.48;;
49730;SDS011;35622;52.008;5.426;2022-10-16T05:39:10;17.38;;;10.48;;
49730;SDS011;35622;52.008;5.426;2022-10-16T05:41:36;19.98;;;10.25;;
49730;SDS011;35622;52.008;5.426;2022-10-16T05:44:05;26.92;;;11.20;;
49730;SDS011;35622;52.008;5.426;2022-10-16T05:46:31;19.60;;;11.90;;
49730;SDS011;35622;52.008;5.426;2022-10-16T05:48:57;24.55;;;12.60;;
49730;SDS011;35622;52.008;5.426;2022-10-16T05:51:22;26.83;;;13.27;;
49730;SDS011;35622;52.008;5.426;2022-10-16T05:53:48;21.35;;;13.15;;
49730;SDS011;35622;52.008;5.426;2022-10-16T05:56:14;20.23;;;13.10;;
49730;SDS011;35622;52.008;5.426;2022-10-16T05:58:40;23.27;;;12.73;;
49730;SDS011;35622;52.008;5.426;2022-10-16T06:01:09;20.02;;;12.80;;
49730;SDS011;35622;52.008;5.426;2022-10-16T06:03:35;21.30;;;12.93;;
49730;SDS011;35622;52.008;5.426;2022-10-16T06:06:14;24.17;;;12.88;;
49730;SDS011;35622;52.008;5.426;2022-10-16T06:08:41;33.42;;;13.95;;
49730;SDS011;35622;52.008;5.426;2022-10-16T06:11:09;25.23;;;13.02;;
49730;SDS011;35622;52.008;5.426;2022-10-16T06:13:37;24.13;;;12.85;;
49730;SDS011;35622;52.008;5.426;2022-10-16T06:16:04;19.40;;;11.73;;
49730;SDS011;35622;52.008;5.426;2022-10-16T06:18:30;21.52;;;12.38;;
49730;SDS011;35622;52.008;5.426;2022-10-16T06:20:56;28.30;;;12.95;;
49730;SDS011;35622;52.008;5.426;2022-10-16T06:23:22;19.75;;;11.63;;
49730;SDS011;35622;52.008;5.426;2022-10-16T06:25:48;24.77;;;10.70;;
49730;SDS011;35622;52.008;5.426;2022-10-16T06:28:14;13.88;;;9.82;;
49730;SDS011;35622;52.008;5.426;2022-10-16T06:30:40;18.48;;;10.40;;
49730;SDS011;35622;52.008;5.426;2022-10-16T06:33:08;16.73;;;10.13;;
49730;SDS011;35622;52.008;5.426;2022-10-16T06:35:35;22.77;;;9.15;;
49730;SDS011;35622;52.008;5.426;2022-10-16T06:38:01;13.65;;;7.68;;
49730;SDS011;35622;52.008;5.426;2022-10-16T06:40:26;13.85;;;8.88;;
49730;SDS011;35622;52.008;5.426;2022-10-16T06:42:54;11.55;;;7.07;;
49730;SDS011;35622;52.008;5.426;2022-10-16T06:45:20;10.80;;;6.70;;
49730;SDS011;35622;52.008;5.426;2022-10-16T06:47:45;18.30;;;7.78;;
49730;SDS011;35622;52.008;5.426;2022-10-16T06:50:11;16.73;;;6.95;;
49730;SDS011;35622;52.008;5.426;2022-10-16T06:52:36;13.05;;;6.30;;
49730;SDS011;35622;52.008;5.426;2022-10-16T06:55:02;11.65;;;6.07;;
49730;SDS011;35622;52.008;5.426;2022-10-16T06:57:28;14.52;;;6.22;;
49730;SDS011;35622;52.008;5.426;2022-10-16T06:59:54;10.45;;;5.07;;
49730;SDS011;35622;52.008;5.426;2022-10-16T07:02:19;15.38;;;5.90;;
49730;SDS011;35622;52.008;5.426;2022-10-16T07:04:45;14.57;;;5.38;;
49730;SDS011;35622;52.008;5.426;2022-10-16T07:07:10;13.18;;;5.18;;
49730;SDS011;35622;52.008;5.426;2022-10-16T07:09:36;7.25;;;4.30;;
49730;SDS011;35622;52.008;5.426;2022-10-16T07:12:01;9.80;;;4.82;;
49730;SDS011;35622;52.008;5.426;2022-10-16T07:14:27;14.02;;;4.30;;
49730;SDS011;35622;52.008;5.426;2022-10-16T07:16:53;9.05;;;4.15;;
49730;SDS011;35622;52.008;5.426;2022-10-16T07:19:18;12.32;;;3.92;;
49730;SDS011;35622;52.008;5.426;2022-10-16T07:21:44;11.25;;;4.05;;
49730;SDS011;35622;52.008;5.426;2022-10-16T07:24:11;7.43;;;3.83;;
49730;SDS011;35622;52.008;5.426;2022-10-16T07:26:38;10.68;;;4.25;;
49730;SDS011;35622;52.008;5.426;2022-10-16T07:29:19;8.48;;;4.07;;
49730;SDS011;35622;52.008;5.426;2022-10-16T07:31:46;13.85;;;4.28;;
49730;SDS011;35622;52.008;5.426;2022-10-16T07:34:13;8.25;;;4.03;;
49730;SDS011;35622;52.008;5.426;2022-10-16T07:36:40;8.10;;;4.03;;
49730;SDS011;35622;52.008;5.426;2022-10-16T07:39:06;7.43;;;3.85;;
49730;SDS011;35622;52.008;5.426;2022-10-16T07:41:32;12.32;;;4.15;;
49730;SDS011;35622;52.008;5.426;2022-10-16T07:44:01;7.15;;;3.60;;
49730;SDS011;35622;52.008;5.426;2022-10-16T07:46:27;6.05;;;3.50;;
49730;SDS011;35622;52.008;5.426;2022-10-16T07:48:54;8.52;;;3.58;;
49730;SDS011;35622;52.008;5.426;2022-10-16T07:51:24;6.40;;;3.25;;
49730;SDS011;35622;52.008;5.426;2022-10-16T07:53:50;8.63;;;2.85;;
49730;SDS011;35622;52.008;5.426;2022-10-16T07:56:17;7.13;;;3.13;;
49730;SDS011;35622;52.008;5.426;2022-10-16T07:58:43;7.90;;;3.08;;
49730;SDS011;35622;52.008;5.426;2022-10-16T08:01:10;6.72;;;3.15;;
49730;SDS011;35622;52.008;5.426;2022-10-16T08:03:38;5.95;;;3.17;;
49730;SDS011;35622;52.008;5.426;2022-10-16T08:06:06;7.97;;;2.95;;
49730;SDS011;35622;52.008;5.426;2022-10-16T08:08:32;6.93;;;3.10;;
49730;SDS011;35622;52.008;5.426;2022-10-16T08:10:58;7.57;;;3.55;;
49730;SDS011;35622;52.008;5.426;2022-10-16T08:13:24;6.97;;;3.45;;
49730;SDS011;35622;52.008;5.426;2022-10-16T08:15:49;9.80;;;3.40;;
49730;SDS011;35622;52.008;5.426;2022-10-16T08:18:15;6.28;;;3.20;;
49730;SDS011;35622;52.008;5.426;2022-10-16T08:20:41;7.43;;;2.80;;
49730;SDS011;35622;52.008;5.426;2022-10-16T08:23:08;7.97;;;3.35;;
49730;SDS011;35622;52.008;5.426;2022-10-16T08:25:36;7.15;;;2.60;;
49730;SDS011;35622;52.008;5.426;2022-10-16T08:28:05;5.55;;;2.25;;
49730;SDS011;35622;52.008;5.426;2022-10-16T08:30:32;5.00;;;1.95;;
49730;SDS011;35622;52.008;5.426;2022-10-16T08:32:58;7.00;;;1.85;;
49730;SDS011;35622;52.008;5.426;2022-10-16T08:35:24;3.97;;;1.63;;
49730;SDS011;35622;52.008;5.426;2022-10-16T08:37:49;3.95;;;1.73;;
49730;SDS011;35622;52.008;5.426;2022-10-16T08:40:16;5.95;;;1.55;;
49730;SDS011;35622;52.008;5.426;2022-10-16T08:48:00;6.32;;;1.75;;
49730;SDS011;35622;52.008;5.426;2022-10-16T08:50:42;3.60;;;1.35;;
49730;SDS011;35622;52.008;5.426;2022-10-16T08:53:11;8.88;;;1.50;;
49730;SDS011;35622;52.008;5.426;2022-10-16T08:55:52;7.85;;;1.70;;
49730;SDS011;35622;52.008;5.426;2022-10-16T08:58:23;6.03;;;1.60;;
49730;SDS011;35622;52.008;5.426;2022-10-16T09:00:56;5.15;;;1.60;;
49730;SDS011;35622;52.008;5.426;2022-10-16T09:15:11;11.32;;;1.48;;
49730;SDS011;35622;52.008;5.426;2022-10-16T09:17:22;8.52;;;1.40;;
49730;SDS011;35622;52.008;5.426;2022-10-16T09:19:51;8.40;;;1.55;;
49730;SDS011;35622;52.008;5.426;2022-10-16T09:22:23;7.82;;;1.50;;
49730;SDS011;35622;52.008;5.426;2022-10-16T09:24:53;7.45;;;1.30;;
49730;SDS011;35622;52.008;5.426;2022-10-16T09:27:24;8.02;;;1.73;;
49730;SDS011;35622;52.008;5.426;2022-10-16T09:29:51;8.15;;;1.67;;
49730;SDS011;35622;52.008;5.426;2022-10-16T09:32:18;13.10;;;2.50;;
49730;SDS011;35622;52.008;5.426;2022-10-16T09:34:52;10.82;;;1.65;;
49730;SDS011;35622;52.008;5.426;2022-10-16T09:37:21;6.10;;;1.48;;
49730;SDS011;35622;52.008;5.426;2022-10-16T09:39:50;9.40;;;1.60;;
49730;SDS011;35622;52.008;5.426;2022-10-16T09:42:20;8.00;;;1.80;;
49730;SDS011;35622;52.008;5.426;2022-10-16T09:44:57;10.25;;;1.90;;
49730;SDS011;35622;52.008;5.426;2022-10-16T09:47:24;6.85;;;1.67;;
49730;SDS011;35622;52.008;5.426;2022-10-16T09:49:56;8.73;;;1.60;;
49730;SDS011;35622;52.008;5.426;2022-10-16T09:52:26;7.95;;;1.55;;
49730;SDS011;35622;52.008;5.426;2022-10-16T09:54:59;6.25;;;1.60;;
49730;SDS011;35622;52.008;5.426;2022-10-16T09:57:27;9.82;;;2.10;;
49730;SDS011;35622;52.008;5.426;2022-10-16T09:59:54;9.65;;;1.88;;
49730;SDS011;35622;52.008;5.426;2022-10-16T10:02:41;6.20;;;1.67;;
49730;SDS011;35622;52.008;5.426;2022-10-16T10:05:14;8.38;;;2.35;;
49730;SDS011;35622;52.008;5.426;2022-10-16T10:07:46;7.50;;;1.90;;
49730;SDS011;35622;52.008;5.426;2022-10-16T10:10:25;10.73;;;1.60;;
49730;SDS011;35622;52.008;5.426;2022-10-16T10:12:53;10.48;;;2.10;;
49730;SDS011;35622;52.008;5.426;2022-10-16T10:15:20;9.05;;;1.60;;
49730;SDS011;35622;52.008;5.426;2022-10-16T10:17:52;9.20;;;1.95;;
49730;SDS011;35622;52.008;5.426;2022-10-16T10:20:33;11.07;;;1.70;;
49730;SDS011;35622;52.008;5.426;2022-10-16T10:23:00;13.10;;;2.28;;
49730;SDS011;35622;52.008;5.426;2022-10-16T10:25:31;10.05;;;1.92;;
49730;SDS011;35622;52.008;5.426;2022-10-16T10:28:09;10.45;;;1.73;;
49730;SDS011;35622;52.008;5.426;2022-10-16T10:30:39;9.73;;;1.95;;
49730;SDS011;35622;52.008;5.426;2022-10-16T10:33:28;9.52;;;1.83;;
49730;SDS011;35622;52.008;5.426;2022-10-16T10:39:07;13.00;;;2.17;;
49730;SDS011;35622;52.008;5.426;2022-10-16T11:01:13;8.70;;;1.88;;
49730;SDS011;35622;52.008;5.426;2022-10-16T11:03:51;7.22;;;2.20;;
49730;SDS011;35622;52.008;5.426;2022-10-16T11:06:52;10.48;;;1.60;;
49730;SDS011;35622;52.008;5.426;2022-10-16T11:09:28;11.30;;;1.80;;
49730;SDS011;35622;52.008;5.426;2022-10-16T11:12:12;9.00;;;1.65;;
49730;SDS011;35622;52.008;5.426;2022-10-16T11:14:54;7.78;;;1.30;;
49730;SDS011;35622;52.008;5.426;2022-10-16T11:17:38;8.30;;;1.75;;
49730;SDS011;35622;52.008;5.426;2022-10-16T11:22:56;7.25;;;1.17;;
49730;SDS011;35622;52.008;5.426;2022-10-16T11:25:28;8.07;;;1.50;;
49730;SDS011;35622;52.008;5.426;2022-10-16T11:28:03;5.15;;;1.30;;
49730;SDS011;35622;52.008;5.426;2022-10-16T11:30:44;10.50;;;1.92;;
49730;SDS011;35622;52.008;5.426;2022-10-16T11:33:36;13.07;;;2.00;;
49730;SDS011;35622;52.008;5.426;2022-10-16T11:39:28;8.27;;;1.30;;
49730;SDS011;35622;52.008;5.426;2022-10-16T11:41:56;9.27;;;1.45;;
49730;SDS011;35622;52.008;5.426;2022-10-16T11:47:51;7.80;;;1.48;;
49730;SDS011;35622;52.008;5.426;2022-10-16T11:50:34;10.05;;;1.70;;
49730;SDS011;35622;52.008;5.426;2022-10-16T11:53:32;13.50;;;1.88;;
49730;SDS011;35622;52.008;5.426;2022-10-16T11:56:16;9.75;;;1.38;;
49730;SDS011;35622;52.008;5.426;2022-10-16T11:59:06;12.25;;;1.83;;
49730;SDS011;35622;52.008;5.426;2022-10-16T12:01:36;8.63;;;1.42;;
49730;SDS011;35622;52.008;5.426;2022-10-16T12:07:11;7.13;;;1.30;;
49730;SDS011;35622;52.008;5.426;2022-10-16T12:09:42;9.68;;;1.50;;
49730;SDS011;35622;52.008;5.426;2022-10-16T12:12:27;11.85;;;1.73;;
49730;SDS011;35622;52.008;5.426;2022-10-16T12:15:24;9.35;;;1.42;;
49730;SDS011;35622;52.008;5.426;2022-10-16T12:17:56;9.60;;;1.63;;
49730;SDS011;35622;52.008;5.426;2022-10-16T12:20:26;10.48;;;1.55;;
49730;SDS011;35622;52.008;5.426;2022-10-16T12:22:58;7.43;;;1.48;;
49730;SDS011;35622;52.008;5.426;2022-10-16T12:25:39;9.35;;;1.45;;
49730;SDS011;35622;52.008;5.426;2022-10-16T12:30:40;11.98;;;1.65;;
49730;SDS011;35622;52.008;5.426;2022-10-16T12:33:15;12.13;;;1.60;;
49730;SDS011;35622;52.008;5.426;2022-10-16T12:35:49;8.65;;;1.77;;
49730;SDS011;35622;52.008;5.426;2022-10-16T12:38:24;8.80;;;1.55;;
49730;SDS011;35622;52.008;5.426;2022-10-16T12:40:59;10.80;;;2.78;;
49730;SDS011;35622;52.008;5.426;2022-10-16T12:43:34;10.18;;;1.40;;
49730;SDS011;35622;52.008;5.426;2022-10-16T12:48:30;15.13;;;1.45;;
49730;SDS011;35622;52.008;5.426;2022-10-16T12:50:55;14.63;;;2.10;;
49730;SDS011;35622;52.008;5.426;2022-10-16T12:53:24;15.32;;;1.95;;
49730;SDS011;35622;52.008;5.426;2022-10-16T12:59:01;10.45;;;2.10;;
49730;SDS011;35622;52.008;5.426;2022-10-16T13:04:46;10.90;;;1.48;;
49730;SDS011;35622;52.008;5.426;2022-10-16T13:07:44;17.25;;;2.38;;
49730;SDS011;35622;52.008;5.426;2022-10-16T13:18:50;9.57;;;1.60;;
49730;SDS011;35622;52.008;5.426;2022-10-16T13:30:30;14.77;;;2.10;;
49730;SDS011;35622;52.008;5.426;2022-10-16T13:38:17;10.52;;;1.98;;
49730;SDS011;35622;52.008;5.426;2022-10-16T13:40:48;13.95;;;2.30;;
49730;SDS011;35622;52.008;5.426;2022-10-16T13:43:20;10.10;;;1.65;;
49730;SDS011;35622;52.008;5.426;2022-10-16T13:45:53;16.77;;;1.90;;
49730;SDS011;35622;52.008;5.426;2022-10-16T13:48:23;9.63;;;1.67;;
49730;SDS011;35622;52.008;5.426;2022-10-16T13:50:59;14.90;;;1.50;;
49730;SDS011;35622;52.008;5.426;2022-10-16T13:53:25;18.20;;;1.88;;
49730;SDS011;35622;52.008;5.426;2022-10-16T13:55:51;11.40;;;1.70;;
49730;SDS011;35622;52.008;5.426;2022-10-16T13:58:17;13.43;;;1.90;;
49730;SDS011;35622;52.008;5.426;2022-10-16T14:00:55;14.48;;;1.75;;
49730;SDS011;35622;52.008;5.426;2022-10-16T14:03:26;9.90;;;1.40;;
49730;SDS011;35622;52.008;5.426;2022-10-16T14:05:54;12.18;;;1.60;;
49730;SDS011;35622;52.008;5.426;2022-10-16T14:08:22;11.10;;;1.77;;
49730;SDS011;35622;52.008;5.426;2022-10-16T14:10:50;11.98;;;1.60;;
49730;SDS011;35622;52.008;5.426;2022-10-16T14:13:19;12.57;;;1.67;;
49730;SDS011;35622;52.008;5.426;2022-10-16T14:15:51;16.73;;;1.85;;
49730;SDS011;35622;52.008;5.426;2022-10-16T14:18:20;13.68;;;1.30;;
49730;SDS011;35622;52.008;5.426;2022-10-16T14:20:48;6.97;;;1.73;;
49730;SDS011;35622;52.008;5.426;2022-10-16T14:23:22;9.35;;;1.83;;
49730;SDS011;35622;52.008;5.426;2022-10-16T14:25:53;11.52;;;2.28;;
49730;SDS011;35622;52.008;5.426;2022-10-16T14:28:20;12.27;;;2.22;;
49730;SDS011;35622;52.008;5.426;2022-10-16T14:30:59;13.35;;;1.70;;
49730;SDS011;35622;52.008;5.426;2022-10-16T14:36:03;15.63;;;2.25;;
49730;SDS011;35622;52.008;5.426;2022-10-16T14:38:29;15.77;;;1.90;;
49730;SDS011;35622;52.008;5.426;2022-10-16T14:40:56;15.57;;;1.63;;
49730;SDS011;35622;52.008;5.426;2022-10-16T14:43:49;12.75;;;1.60;;
49730;SDS011;35622;52.008;5.426;2022-10-16T14:46:14;15.02;;;1.75;;
49730;SDS011;35622;52.008;5.426;2022-10-16T14:48:43;13.55;;;1.60;;
49730;SDS011;35622;52.008;5.426;2022-10-16T14:51:15;10.77;;;2.03;;
49730;SDS011;35622;52.008;5.426;2022-10-16T14:53:42;16.98;;;1.55;;
49730;SDS011;35622;52.008;5.426;2022-10-16T14:56:16;12.52;;;1.70;;
49730;SDS011;35622;52.008;5.426;2022-10-16T14:58:47;20.60;;;1.90;;
49730;SDS011;35622;52.008;5.426;2022-10-16T15:01:15;13.82;;;1.80;;
49730;SDS011;35622;52.008;5.426;2022-10-16T15:03:41;9.85;;;1.58;;
49730;SDS011;35622;52.008;5.426;2022-10-16T15:06:15;11.95;;;1.83;;
49730;SDS011;35622;52.008;5.426;2022-10-16T15:08:41;12.38;;;1.70;;
49730;SDS011;35622;52.008;5.426;2022-10-16T15:11:15;12.68;;;2.03;;
49730;SDS011;35622;52.008;5.426;2022-10-16T15:13:42;13.73;;;2.03;;
49730;SDS011;35622;52.008;5.426;2022-10-16T15:16:11;17.73;;;2.65;;
49730;SDS011;35622;52.008;5.426;2022-10-16T15:18:39;14.63;;;1.90;;
49730;SDS011;35622;52.008;5.426;2022-10-16T15:21:04;10.68;;;1.92;;
49730;SDS011;35622;52.008;5.426;2022-10-16T15:23:30;18.25;;;2.67;;
49730;SDS011;35622;52.008;5.426;2022-10-16T15:25:56;10.80;;;2.00;;
49730;SDS011;35622;52.008;5.426;2022-10-16T15:28:22;12.35;;;2.35;;
49730;SDS011;35622;52.008;5.426;2022-10-16T15:30:51;16.70;;;1.95;;
49730;SDS011;35622;52.008;5.426;2022-10-16T15:33:18;18.25;;;3.78;;
49730;SDS011;35622;52.008;5.426;2022-10-16T15:35:46;12.40;;;5.00;;
49730;SDS011;35622;52.008;5.426;2022-10-16T15:38:13;12.88;;;6.00;;
49730;SDS011;35622;52.008;5.426;2022-10-16T15:40:40;13.00;;;2.70;;
49730;SDS011;35622;52.008;5.426;2022-10-16T15:43:06;12.35;;;2.03;;
49730;SDS011;35622;52.008;5.426;2022-10-16T15:45:32;8.98;;;2.03;;
49730;SDS011;35622;52.008;5.426;2022-10-16T15:47:58;16.95;;;2.75;;
49730;SDS011;35622;52.008;5.426;2022-10-16T15:50:23;11.13;;;2.28;;
49730;SDS011;35622;52.008;5.426;2022-10-16T15:52:49;9.15;;;1.80;;
49730;SDS011;35622;52.008;5.426;2022-10-16T15:55:15;14.23;;;2.53;;
49730;SDS011;35622;52.008;5.426;2022-10-16T15:57:42;10.98;;;2.00;;
49730;SDS011;35622;52.008;5.426;2022-10-16T16:00:12;9.18;;;1.88;;
49730;SDS011;35622;52.008;5.426;2022-10-16T16:02:40;15.52;;;1.70;;
49730;SDS011;35622;52.008;5.426;2022-10-16T16:05:07;12.30;;;2.17;;
49730;SDS011;35622;52.008;5.426;2022-10-16T16:07:34;6.35;;;1.55;;
49730;SDS011;35622;52.008;5.426;2022-10-16T16:10:01;11.32;;;2.03;;
49730;SDS011;35622;52.008;5.426;2022-10-16T16:12:28;8.98;;;1.90;;
49730;SDS011;35622;52.008;5.426;2022-10-16T16:14:54;9.25;;;2.28;;
49730;SDS011;35622;52.008;5.426;2022-10-16T16:17:19;10.27;;;2.08;;
49730;SDS011;35622;52.008;5.426;2022-10-16T16:19:45;20.30;;;2.30;;
49730;SDS011;35622;52.008;5.426;2022-10-16T16:22:11;12.27;;;1.98;;
49730;SDS011;35622;52.008;5.426;2022-10-16T16:24:36;12.90;;;2.45;;
49730;SDS011;35622;52.008;5.426;2022-10-16T16:27:02;10.18;;;2.53;;
49730;SDS011;35622;52.008;5.426;2022-10-16T16:29:27;12.35;;;1.95;;
49730;SDS011;35622;52.008;5.426;2022-10-16T16:31:53;15.50;;;2.20;;
49730;SDS011;35622;52.008;5.426;2022-10-16T16:34:22;6.85;;;1.50;;
49730;SDS011;35622;52.008;5.426;2022-10-16T16:36:49;11.10;;;1.75;;
49730;SDS011;35622;52.008;5.426;2022-10-16T16:39:15;13.35;;;2.28;;
49730;SDS011;35622;52.008;5.426;2022-10-16T16:41:41;13.52;;;2.38;;
49730;SDS011;35622;52.008;5.426;2022-10-16T16:44:12;17.95;;;2.35;;